sensor_id;sensor_type;location;lat;lon;timestamp;temperature;humidity
44695;DHT22;32845;59.422;17.930;2023-07-30T00:03:30;16.10;99.90
44695;DHT22;32845;59.422;17.930;2023-07-30T00:08:01;16.10;99.90
44695;DHT22;32845;59.422;17.930;2023-07-30T00:12:31;16.00;99.90
44695;DHT22;32845;59.422;17.930;2023-07-30T00:17:02;16.00;99.90
44695;DHT22;32845;59.422;17.930;2023-07-30T00:21:33;16.00;99.90
44695;DHT22;32845;59.422;17.930;2023-07-30T00:26:03;15.90;99.90
44695;DHT22;32845;59.422;17.930;2023-07-30T00:30:34;15.90;99.90
44695;DHT22;32845;59.422;17.930;2023-07-30T00:35:05;15.90;99.90
44695;DHT22;32845;59.422;17.930;2023-07-30T00:39:36;15.80;99.90
44695;DHT22;32845;59.422;17.930;2023-07-30T00:44:06;15.80;99.90
44695;DHT22;32845;59.422;17.930;2023-07-30T00:48:37;15.70;99.90
44695;DHT22;32845;59.422;17.930;2023-07-30T00:53:09;15.70;99.90
44695;DHT22;32845;59.422;17.930;2023-07-30T00:57:41;15.70;99.90
44695;DHT22;32845;59.422;17.930;2023-07-30T01:02:12;15.60;99.90
44695;DHT22;32845;59.422;17.930;2023-07-30T01:06:43;15.60;99.90
44695;DHT22;32845;59.422;17.930;2023-07-30T01:11:14;15.50;99.90
44695;DHT22;32845;59.422;17.930;2023-07-30T01:15:46;15.50;99.90
44695;DHT22;32845;59.422;17.930;2023-07-30T01:20:17;15.40;99.90
44695;DHT22;32845;59.422;17.930;2023-07-30T01:24:48;15.30;99.90
44695;DHT22;32845;59.422;17.930;2023-07-30T01:29:22;15.30;99.90
44695;DHT22;32845;59.422;17.930;2023-07-30T01:33:56;15.20;99.90
44695;DHT22;32845;59.422;17.930;2023-07-30T01:38:27;15.10;99.90
44695;DHT22;32845;59.422;17.930;2023-07-30T01:42:58;15.10;99.90
44695;DHT22;32845;59.422;17.930;2023-07-30T01:47:28;15.00;99.90
44695;DHT22;32845;59.422;17.930;2023-07-30T01:51:59;15.00;99.90
44695;DHT22;32845;59.422;17.930;2023-07-30T01:56:30;14.90;99.90
44695;DHT22;32845;59.422;17.930;2023-07-30T02:01:01;14.90;99.90
44695;DHT22;32845;59.422;17.930;2023-07-30T02:05:31;14.90;99.90
44695;DHT22;32845;59.422;17.930;2023-07-30T02:10:02;14.80;99.90
44695;DHT22;32845;59.422;17.930;2023-07-30T02:14:34;14.70;99.90
44695;DHT22;32845;59.422;17.930;2023-07-30T02:19:04;14.70;99.90
44695;DHT22;32845;59.422;17.930;2023-07-30T02:23:35;14.70;99.90
44695;DHT22;32845;59.422;17.930;2023-07-30T02:28:06;14.70;99.90
44695;DHT22;32845;59.422;17.930;2023-07-30T02:32:36;14.60;99.90
44695;DHT22;32845;59.422;17.930;2023-07-30T02:37:07;14.60;99.90
44695;DHT22;32845;59.422;17.930;2023-07-30T02:41:37;14.60;99.90
44695;DHT22;32845;59.422;17.930;2023-07-30T02:46:08;14.60;99.90
44695;DHT22;32845;59.422;17.930;2023-07-30T02:50:38;14.50;99.90
44695;DHT22;32845;59.422;17.930;2023-07-30T02:55:09;14.60;99.90
44695;DHT22;32845;59.422;17.930;2023-07-30T02:59:40;14.60;99.90
44695;DHT22;32845;59.422;17.930;2023-07-30T03:04:11;14.60;99.90
44695;DHT22;32845;59.422;17.930;2023-07-30T03:08:41;14.60;99.90
44695;DHT22;32845;59.422;17.930;2023-07-30T03:13:12;14.60;99.90
44695;DHT22;32845;59.422;17.930;2023-07-30T03:17:42;14.70;99.90
44695;DHT22;32845;59.422;17.930;2023-07-30T03:22:13;14.70;99.90
44695;DHT22;32845;59.422;17.930;2023-07-30T03:26:43;14.70;99.90
44695;DHT22;32845;59.422;17.930;2023-07-30T03:31:14;14.80;99.90
44695;DHT22;32845;59.422;17.930;2023-07-30T03:35:45;14.80;99.90
44695;DHT22;32845;59.422;17.930;2023-07-30T03:40:15;14.90;99.90
44695;DHT22;32845;59.422;17.930;2023-07-30T03:44:46;15.00;99.90
44695;DHT22;32845;59.422;17.930;2023-07-30T03:49:16;15.00;99.90
44695;DHT22;32845;59.422;17.930;2023-07-30T03:53:47;15.20;99.90
44695;DHT22;32845;59.422;17.930;2023-07-30T03:58:18;15.20;99.90
44695;DHT22;32845;59.422;17.930;2023-07-30T04:02:48;15.30;99.90
44695;DHT22;32845;59.422;17.930;2023-07-30T04:07:19;15.30;99.90
44695;DHT22;32845;59.422;17.930;2023-07-30T04:11:49;15.40;99.90
44695;DHT22;32845;59.422;17.930;2023-07-30T04:16:20;15.50;99.90
44695;DHT22;32845;59.422;17.930;2023-07-30T04:20:53;15.50;99.90
44695;DHT22;32845;59.422;17.930;2023-07-30T04:25:24;15.70;99.90
44695;DHT22;32845;59.422;17.930;2023-07-30T04:29:54;15.80;99.90
44695;DHT22;32845;59.422;17.930;2023-07-30T04:34:25;15.90;99.90
44695;DHT22;32845;59.422;17.930;2023-07-30T04:38:56;16.10;99.90
44695;DHT22;32845;59.422;17.930;2023-07-30T04:43:26;16.30;99.90
44695;DHT22;32845;59.422;17.930;2023-07-30T04:47:57;16.40;99.90
44695;DHT22;32845;59.422;17.930;2023-07-30T04:52:28;16.60;99.90
44695;DHT22;32845;59.422;17.930;2023-07-30T04:56:58;16.70;99.90
44695;DHT22;32845;59.422;17.930;2023-07-30T05:01:29;16.80;99.90
44695;DHT22;32845;59.422;17.930;2023-07-30T05:05:59;16.80;99.90
44695;DHT22;32845;59.422;17.930;2023-07-30T05:10:30;16.90;99.90
44695;DHT22;32845;59.422;17.930;2023-07-30T05:15:01;17.00;99.90
44695;DHT22;32845;59.422;17.930;2023-07-30T05:19:31;17.10;99.90
44695;DHT22;32845;59.422;17.930;2023-07-30T05:24:02;17.20;99.90
44695;DHT22;32845;59.422;17.930;2023-07-30T05:28:33;17.30;99.90
44695;DHT22;32845;59.422;17.930;2023-07-30T05:33:04;17.40;99.90
44695;DHT22;32845;59.422;17.930;2023-07-30T05:37:35;17.50;99.90
44695;DHT22;32845;59.422;17.930;2023-07-30T05:42:05;17.60;99.90
44695;DHT22;32845;59.422;17.930;2023-07-30T05:46:36;17.70;99.90
44695;DHT22;32845;59.422;17.930;2023-07-30T05:51:06;17.80;99.90
44695;DHT22;32845;59.422;17.930;2023-07-30T05:55:37;17.90;99.90
44695;DHT22;32845;59.422;17.930;2023-07-30T06:00:08;17.80;99.90
44695;DHT22;32845;59.422;17.930;2023-07-30T06:04:39;17.90;99.90
44695;DHT22;32845;59.422;17.930;2023-07-30T06:09:10;17.90;99.90
44695;DHT22;32845;59.422;17.930;2023-07-30T06:13:41;17.90;99.90
44695;DHT22;32845;59.422;17.930;2023-07-30T06:18:12;17.90;99.90
44695;DHT22;32845;59.422;17.930;2023-07-30T06:22:43;17.90;99.90
44695;DHT22;32845;59.422;17.930;2023-07-30T06:27:13;17.90;99.90
44695;DHT22;32845;59.422;17.930;2023-07-30T06:31:44;17.90;99.90
44695;DHT22;32845;59.422;17.930;2023-07-30T06:36:14;17.90;99.90
44695;DHT22;32845;59.422;17.930;2023-07-30T06:40:45;18.00;99.90
44695;DHT22;32845;59.422;17.930;2023-07-30T06:45:16;18.00;99.90
44695;DHT22;32845;59.422;17.930;2023-07-30T06:49:46;18.00;99.90
44695;DHT22;32845;59.422;17.930;2023-07-30T06:54:17;18.10;99.90
44695;DHT22;32845;59.422;17.930;2023-07-30T06:58:47;18.10;99.90
44695;DHT22;32845;59.422;17.930;2023-07-30T07:03:18;18.10;99.90
44695;DHT22;32845;59.422;17.930;2023-07-30T07:07:48;18.20;99.90
44695;DHT22;32845;59.422;17.930;2023-07-30T07:12:19;18.30;99.90
44695;DHT22;32845;59.422;17.930;2023-07-30T07:16:51;18.40;99.90
44695;DHT22;32845;59.422;17.930;2023-07-30T07:21:22;18.40;99.90
44695;DHT22;32845;59.422;17.930;2023-07-30T07:25:53;18.60;99.90
44695;DHT22;32845;59.422;17.930;2023-07-30T07:30:23;18.70;99.90
44695;DHT22;32845;59.422;17.930;2023-07-30T07:34:54;18.90;99.90
44695;DHT22;32845;59.422;17.930;2023-07-30T07:39:24;19.00;99.90
44695;DHT22;32845;59.422;17.930;2023-07-30T07:43:55;19.20;99.90
44695;DHT22;32845;59.422;17.930;2023-07-30T07:48:26;19.40;99.90
44695;DHT22;32845;59.422;17.930;2023-07-30T07:52:56;19.50;99.90
44695;DHT22;32845;59.422;17.930;2023-07-30T07:57:27;19.60;99.90
44695;DHT22;32845;59.422;17.930;2023-07-30T08:02:00;19.70;99.90
44695;DHT22;32845;59.422;17.930;2023-07-30T08:06:33;19.70;99.90
44695;DHT22;32845;59.422;17.930;2023-07-30T08:11:08;19.90;99.90
44695;DHT22;32845;59.422;17.930;2023-07-30T08:15:39;19.90;99.90
44695;DHT22;32845;59.422;17.930;2023-07-30T08:20:10;20.00;99.90
44695;DHT22;32845;59.422;17.930;2023-07-30T08:24:41;20.20;99.90
44695;DHT22;32845;59.422;17.930;2023-07-30T08:29:11;20.40;99.90
44695;DHT22;32845;59.422;17.930;2023-07-30T08:33:43;20.50;99.90
44695;DHT22;32845;59.422;17.930;2023-07-30T08:38:14;20.60;99.90
44695;DHT22;32845;59.422;17.930;2023-07-30T08:42:44;20.80;99.90
44695;DHT22;32845;59.422;17.930;2023-07-30T08:47:15;20.90;99.90
44695;DHT22;32845;59.422;17.930;2023-07-30T08:51:48;21.00;99.90
44695;DHT22;32845;59.422;17.930;2023-07-30T08:56:21;21.20;99.90
44695;DHT22;32845;59.422;17.930;2023-07-30T09:00:55;21.40;99.90
44695;DHT22;32845;59.422;17.930;2023-07-30T09:05:26;21.50;99.90
44695;DHT22;32845;59.422;17.930;2023-07-30T09:10:00;21.60;99.90
44695;DHT22;32845;59.422;17.930;2023-07-30T09:14:30;21.80;99.90
44695;DHT22;32845;59.422;17.930;2023-07-30T09:19:01;21.90;99.90
44695;DHT22;32845;59.422;17.930;2023-07-30T09:23:31;22.30;99.90
44695;DHT22;32845;59.422;17.930;2023-07-30T09:28:02;22.50;99.90
44695;DHT22;32845;59.422;17.930;2023-07-30T09:32:34;22.70;99.90
44695;DHT22;32845;59.422;17.930;2023-07-30T09:37:05;22.70;99.90
44695;DHT22;32845;59.422;17.930;2023-07-30T09:41:36;22.80;99.90
44695;DHT22;32845;59.422;17.930;2023-07-30T09:46:07;22.90;99.90
44695;DHT22;32845;59.422;17.930;2023-07-30T09:50:38;22.90;99.90
44695;DHT22;32845;59.422;17.930;2023-07-30T09:55:08;22.90;99.90
44695;DHT22;32845;59.422;17.930;2023-07-30T09:59:39;22.90;99.90
44695;DHT22;32845;59.422;17.930;2023-07-30T10:04:10;23.10;99.90
44695;DHT22;32845;59.422;17.930;2023-07-30T10:08:41;23.50;99.90
44695;DHT22;32845;59.422;17.930;2023-07-30T10:13:13;23.70;99.90
44695;DHT22;32845;59.422;17.930;2023-07-30T10:17:44;23.80;99.90
44695;DHT22;32845;59.422;17.930;2023-07-30T10:26:49;24.10;99.90
44695;DHT22;32845;59.422;17.930;2023-07-30T10:31:39;24.30;99.90
44695;DHT22;32845;59.422;17.930;2023-07-30T10:36:10;24.50;99.90
44695;DHT22;32845;59.422;17.930;2023-07-30T10:40:41;24.80;99.90
44695;DHT22;32845;59.422;17.930;2023-07-30T10:45:11;24.90;99.90
44695;DHT22;32845;59.422;17.930;2023-07-30T10:49:42;24.80;99.90
44695;DHT22;32845;59.422;17.930;2023-07-30T10:54:16;24.70;99.90
44695;DHT22;32845;59.422;17.930;2023-07-30T10:58:54;24.80;99.90
44695;DHT22;32845;59.422;17.930;2023-07-30T11:03:26;25.00;99.90
44695;DHT22;32845;59.422;17.930;2023-07-30T11:07:59;25.00;99.90
44695;DHT22;32845;59.422;17.930;2023-07-30T11:12:30;24.90;99.90
44695;DHT22;32845;59.422;17.930;2023-07-30T11:17:00;24.70;99.90
44695;DHT22;32845;59.422;17.930;2023-07-30T11:21:31;24.70;99.90
44695;DHT22;32845;59.422;17.930;2023-07-30T11:26:03;24.60;99.90
44695;DHT22;32845;59.422;17.930;2023-07-30T11:30:34;24.20;99.90
44695;DHT22;32845;59.422;17.930;2023-07-30T11:35:06;23.80;99.90
44695;DHT22;32845;59.422;17.930;2023-07-30T11:39:37;23.50;99.90
44695;DHT22;32845;59.422;17.930;2023-07-30T11:44:08;23.30;99.90
44695;DHT22;32845;59.422;17.930;2023-07-30T11:48:41;23.10;99.90
44695;DHT22;32845;59.422;17.930;2023-07-30T11:53:11;22.80;99.90
44695;DHT22;32845;59.422;17.930;2023-07-30T11:57:42;22.50;99.90
44695;DHT22;32845;59.422;17.930;2023-07-30T12:02:17;22.10;99.90
44695;DHT22;32845;59.422;17.930;2023-07-30T12:06:50;21.90;99.90
44695;DHT22;32845;59.422;17.930;2023-07-30T12:11:24;21.70;99.90
44695;DHT22;32845;59.422;17.930;2023-07-30T12:15:55;21.50;99.90
44695;DHT22;32845;59.422;17.930;2023-07-30T12:20:27;21.30;99.90
44695;DHT22;32845;59.422;17.930;2023-07-30T12:24:58;21.10;99.90
44695;DHT22;32845;59.422;17.930;2023-07-30T12:29:29;20.80;99.90
44695;DHT22;32845;59.422;17.930;2023-07-30T12:33:59;20.60;99.90
44695;DHT22;32845;59.422;17.930;2023-07-30T12:38:30;20.40;99.90
44695;DHT22;32845;59.422;17.930;2023-07-30T12:43:02;20.20;99.90
44695;DHT22;32845;59.422;17.930;2023-07-30T12:47:33;20.10;99.90
44695;DHT22;32845;59.422;17.930;2023-07-30T12:52:06;20.10;99.90
44695;DHT22;32845;59.422;17.930;2023-07-30T12:56:36;20.00;99.90
44695;DHT22;32845;59.422;17.930;2023-07-30T13:01:07;19.80;99.90
44695;DHT22;32845;59.422;17.930;2023-07-30T13:05:37;19.80;99.90
44695;DHT22;32845;59.422;17.930;2023-07-30T13:10:09;19.70;99.90
44695;DHT22;32845;59.422;17.930;2023-07-30T13:14:39;19.50;99.90
44695;DHT22;32845;59.422;17.930;2023-07-30T13:19:10;19.40;99.90
44695;DHT22;32845;59.422;17.930;2023-07-30T13:23:40;19.30;99.90
44695;DHT22;32845;59.422;17.930;2023-07-30T13:28:11;19.30;99.90
44695;DHT22;32845;59.422;17.930;2023-07-30T13:32:42;19.40;99.90
44695;DHT22;32845;59.422;17.930;2023-07-30T13:37:12;19.40;99.90
44695;DHT22;32845;59.422;17.930;2023-07-30T13:41:43;19.40;99.90
44695;DHT22;32845;59.422;17.930;2023-07-30T13:46:13;19.50;99.90
44695;DHT22;32845;59.422;17.930;2023-07-30T13:50:44;19.60;99.90
44695;DHT22;32845;59.422;17.930;2023-07-30T13:55:14;19.80;99.90
44695;DHT22;32845;59.422;17.930;2023-07-30T13:59:46;20.00;99.90
44695;DHT22;32845;59.422;17.930;2023-07-30T14:04:17;20.20;99.90
44695;DHT22;32845;59.422;17.930;2023-07-30T14:08:48;20.40;99.90
44695;DHT22;32845;59.422;17.930;2023-07-30T14:13:19;20.60;99.90
44695;DHT22;32845;59.422;17.930;2023-07-30T14:17:49;20.60;99.90
44695;DHT22;32845;59.422;17.930;2023-07-30T14:22:22;20.60;99.90
44695;DHT22;32845;59.422;17.930;2023-07-30T14:26:52;20.60;99.90
44695;DHT22;32845;59.422;17.930;2023-07-30T14:31:23;20.60;99.90
44695;DHT22;32845;59.422;17.930;2023-07-30T14:35:54;20.60;99.90
44695;DHT22;32845;59.422;17.930;2023-07-30T14:40:24;20.60;99.90
44695;DHT22;32845;59.422;17.930;2023-07-30T14:44:55;20.60;99.90
44695;DHT22;32845;59.422;17.930;2023-07-30T14:49:26;20.70;99.90
44695;DHT22;32845;59.422;17.930;2023-07-30T14:53:57;20.70;99.90
44695;DHT22;32845;59.422;17.930;2023-07-30T14:58:28;20.80;99.90
44695;DHT22;32845;59.422;17.930;2023-07-30T15:02:58;20.80;99.90
44695;DHT22;32845;59.422;17.930;2023-07-30T15:07:29;20.80;99.90
44695;DHT22;32845;59.422;17.930;2023-07-30T15:12:00;20.80;99.90
44695;DHT22;32845;59.422;17.930;2023-07-30T15:16:30;20.80;99.90
44695;DHT22;32845;59.422;17.930;2023-07-30T15:21:01;20.70;99.90
44695;DHT22;32845;59.422;17.930;2023-07-30T15:25:31;20.70;99.90
44695;DHT22;32845;59.422;17.930;2023-07-30T15:30:02;20.70;99.90
44695;DHT22;32845;59.422;17.930;2023-07-30T15:34:33;20.70;99.90
44695;DHT22;32845;59.422;17.930;2023-07-30T15:39:04;20.70;99.90
44695;DHT22;32845;59.422;17.930;2023-07-30T15:43:35;20.70;99.90
44695;DHT22;32845;59.422;17.930;2023-07-30T15:48:05;20.70;99.90
44695;DHT22;32845;59.422;17.930;2023-07-30T15:52:36;20.70;99.90
44695;DHT22;32845;59.422;17.930;2023-07-30T15:57:06;20.70;99.90
44695;DHT22;32845;59.422;17.930;2023-07-30T16:01:40;20.70;99.90
44695;DHT22;32845;59.422;17.930;2023-07-30T16:06:11;20.60;99.90
44695;DHT22;32845;59.422;17.930;2023-07-30T16:10:41;20.50;99.90
44695;DHT22;32845;59.422;17.930;2023-07-30T16:15:12;20.40;99.90
44695;DHT22;32845;59.422;17.930;2023-07-30T16:19:43;20.30;99.90
44695;DHT22;32845;59.422;17.930;2023-07-30T16:24:14;20.30;99.90
44695;DHT22;32845;59.422;17.930;2023-07-30T16:28:45;20.30;99.90
44695;DHT22;32845;59.422;17.930;2023-07-30T16:33:16;20.30;99.90
44695;DHT22;32845;59.422;17.930;2023-07-30T16:37:47;20.30;99.90
44695;DHT22;32845;59.422;17.930;2023-07-30T16:42:18;20.30;99.90
44695;DHT22;32845;59.422;17.930;2023-07-30T16:46:48;20.30;99.90
44695;DHT22;32845;59.422;17.930;2023-07-30T16:51:19;20.40;99.90
44695;DHT22;32845;59.422;17.930;2023-07-30T16:55:49;20.30;99.90
44695;DHT22;32845;59.422;17.930;2023-07-30T17:00:20;20.20;99.90
44695;DHT22;32845;59.422;17.930;2023-07-30T17:04:51;20.20;99.90
44695;DHT22;32845;59.422;17.930;2023-07-30T17:09:21;20.10;99.90
44695;DHT22;32845;59.422;17.930;2023-07-30T17:13:52;20.00;99.90
44695;DHT22;32845;59.422;17.930;2023-07-30T17:18:24;19.90;99.90
44695;DHT22;32845;59.422;17.930;2023-07-30T17:22:55;19.70;99.90
44695;DHT22;32845;59.422;17.930;2023-07-30T17:27:25;19.50;99.90
44695;DHT22;32845;59.422;17.930;2023-07-30T17:31:56;19.20;99.90
44695;DHT22;32845;59.422;17.930;2023-07-30T17:36:26;18.70;99.90
44695;DHT22;32845;59.422;17.930;2023-07-30T17:40:57;18.40;99.90
44695;DHT22;32845;59.422;17.930;2023-07-30T17:45:28;18.00;99.90
44695;DHT22;32845;59.422;17.930;2023-07-30T17:49:58;17.70;99.90
44695;DHT22;32845;59.422;17.930;2023-07-30T17:54:29;17.50;99.90
44695;DHT22;32845;59.422;17.930;2023-07-30T17:58:59;17.40;99.90
44695;DHT22;32845;59.422;17.930;2023-07-30T18:03:31;17.30;99.90
44695;DHT22;32845;59.422;17.930;2023-07-30T18:08:02;17.30;99.90
44695;DHT22;32845;59.422;17.930;2023-07-30T18:12:33;17.20;99.90
44695;DHT22;32845;59.422;17.930;2023-07-30T18:17:04;17.10;99.90
44695;DHT22;32845;59.422;17.930;2023-07-30T18:21:34;17.00;99.90
44695;DHT22;32845;59.422;17.930;2023-07-30T18:26:06;17.00;99.90
44695;DHT22;32845;59.422;17.930;2023-07-30T18:30:37;16.90;99.90
44695;DHT22;32845;59.422;17.930;2023-07-30T18:35:09;16.90;99.90
44695;DHT22;32845;59.422;17.930;2023-07-30T18:39:41;16.90;99.90
44695;DHT22;32845;59.422;17.930;2023-07-30T18:44:11;16.90;99.90
44695;DHT22;32845;59.422;17.930;2023-07-30T18:48:42;16.90;99.90
44695;DHT22;32845;59.422;17.930;2023-07-30T18:53:13;16.90;99.90
44695;DHT22;32845;59.422;17.930;2023-07-30T18:57:43;16.90;99.90
44695;DHT22;32845;59.422;17.930;2023-07-30T19:02:14;16.90;99.90
44695;DHT22;32845;59.422;17.930;2023-07-30T19:06:44;16.80;99.90
44695;DHT22;32845;59.422;17.930;2023-07-30T19:11:15;16.90;99.90
44695;DHT22;32845;59.422;17.930;2023-07-30T19:15:46;16.80;99.90
44695;DHT22;32845;59.422;17.930;2023-07-30T19:20:17;16.80;99.90
44695;DHT22;32845;59.422;17.930;2023-07-30T19:24:47;16.80;99.90
44695;DHT22;32845;59.422;17.930;2023-07-30T19:29:18;16.80;99.90
44695;DHT22;32845;59.422;17.930;2023-07-30T19:33:48;16.80;99.90
44695;DHT22;32845;59.422;17.930;2023-07-30T19:38:19;16.80;99.90
44695;DHT22;32845;59.422;17.930;2023-07-30T19:42:50;16.80;99.90
44695;DHT22;32845;59.422;17.930;2023-07-30T19:47:21;16.80;99.90
44695;DHT22;32845;59.422;17.930;2023-07-30T19:51:54;16.70;99.90
44695;DHT22;32845;59.422;17.930;2023-07-30T19:56:24;16.70;99.90
44695;DHT22;32845;59.422;17.930;2023-07-30T20:00:56;16.70;99.90
44695;DHT22;32845;59.422;17.930;2023-07-30T20:05:27;16.60;99.90
44695;DHT22;32845;59.422;17.930;2023-07-30T20:09:58;16.70;99.90
44695;DHT22;32845;59.422;17.930;2023-07-30T20:14:29;16.70;99.90
44695;DHT22;32845;59.422;17.930;2023-07-30T20:19:00;16.70;99.90
44695;DHT22;32845;59.422;17.930;2023-07-30T20:23:30;16.60;99.90
44695;DHT22;32845;59.422;17.930;2023-07-30T20:28:02;16.50;99.90
44695;DHT22;32845;59.422;17.930;2023-07-30T20:32:33;16.50;99.90
44695;DHT22;32845;59.422;17.930;2023-07-30T20:37:04;16.40;99.90
44695;DHT22;32845;59.422;17.930;2023-07-30T20:41:35;16.40;99.90
44695;DHT22;32845;59.422;17.930;2023-07-30T20:46:08;16.30;99.90
44695;DHT22;32845;59.422;17.930;2023-07-30T20:50:40;16.30;99.90
44695;DHT22;32845;59.422;17.930;2023-07-30T20:55:11;16.30;99.90
44695;DHT22;32845;59.422;17.930;2023-07-30T20:59:42;16.20;99.90
44695;DHT22;32845;59.422;17.930;2023-07-30T21:04:13;16.20;99.90
44695;DHT22;32845;59.422;17.930;2023-07-30T21:08:43;16.20;99.90
44695;DHT22;32845;59.422;17.930;2023-07-30T21:13:15;16.20;99.90
44695;DHT22;32845;59.422;17.930;2023-07-30T21:17:46;16.20;99.90
44695;DHT22;32845;59.422;17.930;2023-07-30T21:22:16;16.20;99.90
44695;DHT22;32845;59.422;17.930;2023-07-30T21:26:47;16.20;99.90
44695;DHT22;32845;59.422;17.930;2023-07-30T21:31:18;16.20;99.90
44695;DHT22;32845;59.422;17.930;2023-07-30T21:35:49;16.20;99.90
44695;DHT22;32845;59.422;17.930;2023-07-30T21:40:19;16.10;99.90
44695;DHT22;32845;59.422;17.930;2023-07-30T21:44:50;16.20;99.90
44695;DHT22;32845;59.422;17.930;2023-07-30T21:49:21;16.20;99.90
44695;DHT22;32845;59.422;17.930;2023-07-30T21:53:51;16.20;99.90
44695;DHT22;32845;59.422;17.930;2023-07-30T21:58:22;16.20;99.90
44695;DHT22;32845;59.422;17.930;2023-07-30T22:02:53;16.20;99.90
44695;DHT22;32845;59.422;17.930;2023-07-30T22:07:28;16.10;99.90
44695;DHT22;32845;59.422;17.930;2023-07-30T22:11:58;16.10;99.90
44695;DHT22;32845;59.422;17.930;2023-07-30T22:16:29;16.10;99.90
44695;DHT22;32845;59.422;17.930;2023-07-30T22:20:59;16.10;99.90
44695;DHT22;32845;59.422;17.930;2023-07-30T22:25:30;16.10;99.90
44695;DHT22;32845;59.422;17.930;2023-07-30T22:30:01;16.10;99.90
44695;DHT22;32845;59.422;17.930;2023-07-30T22:34:31;16.10;99.90
44695;DHT22;32845;59.422;17.930;2023-07-30T22:39:02;16.10;99.90
44695;DHT22;32845;59.422;17.930;2023-07-30T22:43:32;16.10;99.90
44695;DHT22;32845;59.422;17.930;2023-07-30T22:48:03;16.10;99.90
44695;DHT22;32845;59.422;17.930;2023-07-30T22:52:34;16.10;99.90
44695;DHT22;32845;59.422;17.930;2023-07-30T22:57:05;16.10;99.90
44695;DHT22;32845;59.422;17.930;2023-07-30T23:01:36;16.00;99.90
44695;DHT22;32845;59.422;17.930;2023-07-30T23:06:06;15.90;99.90
44695;DHT22;32845;59.422;17.930;2023-07-30T23:10:37;15.90;99.90
44695;DHT22;32845;59.422;17.930;2023-07-30T23:15:08;15.80;99.90
44695;DHT22;32845;59.422;17.930;2023-07-30T23:19:38;15.70;99.90
44695;DHT22;32845;59.422;17.930;2023-07-30T23:24:09;15.60;99.90
44695;DHT22;32845;59.422;17.930;2023-07-30T23:28:41;15.50;99.90
44695;DHT22;32845;59.422;17.930;2023-07-30T23:33:11;15.40;99.90
44695;DHT22;32845;59.422;17.930;2023-07-30T23:37:42;15.30;99.90
44695;DHT22;32845;59.422;17.930;2023-07-30T23:42:12;15.20;99.90
44695;DHT22;32845;59.422;17.930;2023-07-30T23:46:43;15.10;99.90
44695;DHT22;32845;59.422;17.930;2023-07-30T23:51:15;15.00;99.90
44695;DHT22;32845;59.422;17.930;2023-07-30T23:55:45;15.00;99.90
